Time;durP1;ratioP1;P1;durP2;ratioP2;P2;SDS_P1;SDS_P2;PMS_P1;PMS_P2;Temp;Humidity;BMP_temperature;BMP_pressure;BME280_temperature;BME280_humidity;BME280_pressure;Samples;Min_cycle;Max_cycle;Signal;HPM_P1;HPM_P2
2024/01/09 00:00:30;;;;;;;12.83;8.03;;;-3.80;99.90;;;;;;2046082;28;21048;-66
2024/01/09 00:01:30;;;;;;;12.00;7.73;;;-3.80;99.90;;;;;;2045950;28;20247;-64
2024/01/09 00:02:31;;;;;;;11.90;7.10;;;-3.80;99.90;;;;;;2045414;28;20224;-66
2024/01/09 00:03:32;;;;;;;11.30;7.17;;;-3.80;99.90;;;;;;2046001;28;20232;-66
2024/01/09 00:04:32;;;;;;;9.97;6.03;;;-3.70;99.90;;;;;;2045686;28;20241;-66
2024/01/09 00:05:33;;;;;;;10.17;6.70;;;-3.70;99.90;;;;;;2046395;28;20654;-66
2024/01/09 00:06:34;;;;;;;10.50;6.47;;;-3.70;99.90;;;;;;2044517;28;20244;-66
2024/01/09 00:07:34;;;;;;;13.90;7.67;;;-3.80;99.90;;;;;;2046373;28;20225;-66
2024/01/09 00:08:35;;;;;;;12.07;7.23;;;-3.90;99.90;;;;;;2044785;28;20922;-67
2024/01/09 00:09:36;;;;;;;11.47;7.00;;;-3.90;99.90;;;;;;2045957;28;20312;-67
2024/01/09 00:10:37;;;;;;;12.95;7.10;;;-3.90;99.90;;;;;;2044178;28;20235;-67
2024/01/09 00:11:38;;;;;;;11.33;7.40;;;-4.00;99.90;;;;;;2037296;29;20237;-67
2024/01/09 00:12:38;;;;;;;10.93;6.83;;;-4.00;99.90;;;;;;2044589;28;20265;-66
2024/01/09 00:13:40;;;;;;;11.70;6.93;;;-4.00;99.90;;;;;;2047497;28;20242;-66
2024/01/09 00:14:40;;;;;;;12.07;7.40;;;-4.10;99.90;;;;;;2038013;28;20300;-66
2024/01/09 00:15:41;;;;;;;13.27;8.63;;;-4.10;99.90;;;;;;2037088;28;20317;-65
2024/01/09 00:16:42;;;;;;;14.00;7.53;;;-4.00;99.90;;;;;;2034508;29;20320;-66
2024/01/09 00:17:42;;;;;;;12.37;6.90;;;-4.00;99.90;;;;;;2045354;28;20240;-66
2024/01/09 00:18:43;;;;;;;11.17;7.00;;;-4.10;99.90;;;;;;2045026;28;20241;-66
2024/01/09 00:19:44;;;;;;;11.23;7.27;;;-4.20;99.90;;;;;;2043836;28;20234;-67
2024/01/09 00:20:44;;;;;;;10.60;6.40;;;-4.20;99.90;;;;;;2054006;28;20659;-66
2024/01/09 00:21:48;;;;;;;10.10;6.63;;;-4.20;99.90;;;;;;2054705;28;20639;-66
2024/01/09 00:22:50;;;;;;;12.98;7.50;;;-4.10;99.90;;;;;;2046816;28;20230;-67
2024/01/09 00:23:51;;;;;;;10.27;6.20;;;-4.20;99.90;;;;;;2047560;28;20656;-66
2024/01/09 00:24:52;;;;;;;9.70;6.80;;;-4.10;99.90;;;;;;2039143;29;20231;-66
2024/01/09 00:25:52;;;;;;;10.83;7.10;;;-4.20;99.90;;;;;;2046636;28;20240;-67
2024/01/09 00:26:53;;;;;;;11.87;6.77;;;-4.20;99.90;;;;;;2047176;28;20326;-66
2024/01/09 00:27:54;;;;;;;10.00;6.67;;;-4.30;99.90;;;;;;2046526;28;20325;-67
2024/01/09 00:28:54;;;;;;;12.57;7.30;;;-4.40;99.90;;;;;;2045624;28;20758;-67
2024/01/09 00:29:55;;;;;;;13.47;8.63;;;-4.30;99.90;;;;;;2046918;28;20262;-67
2024/01/09 00:30:56;;;;;;;10.90;7.43;;;-4.30;99.90;;;;;;2043969;28;20689;-65
2024/01/09 00:31:56;;;;;;;12.07;6.57;;;-4.30;99.90;;;;;;2046837;28;20246;-67
2024/01/09 00:32:57;;;;;;;11.13;7.20;;;-4.20;99.90;;;;;;2047133;28;20242;-66
2024/01/09 00:33:58;;;;;;;12.27;7.70;;;-4.20;99.90;;;;;;2047250;28;20242;-67
2024/01/09 00:34:59;;;;;;;11.80;7.47;;;-4.20;99.90;;;;;;2047224;28;20258;-67
2024/01/09 00:36:03;;;;;;;13.65;7.38;;;-4.10;99.90;;;;;;2037895;29;20332;-67
2024/01/09 00:37:03;;;;;;;12.13;6.90;;;-4.20;99.90;;;;;;2024456;29;20232;-67
2024/01/09 00:38:04;;;;;;;10.63;6.80;;;-4.20;99.90;;;;;;2031306;29;20219;-67
2024/01/09 00:39:05;;;;;;;12.10;6.83;;;-4.20;99.90;;;;;;2045585;28;20214;-67
2024/01/09 00:40:08;;;;;;;10.63;6.97;;;-4.10;99.90;;;;;;2045988;28;20277;-66
2024/01/09 00:41:08;;;;;;;13.15;7.18;;;-4.10;99.90;;;;;;2037885;29;20222;-66
2024/01/09 00:42:09;;;;;;;11.70;6.30;;;-4.00;99.90;;;;;;2045560;28;20606;-67
2024/01/09 00:43:10;;;;;;;13.60;7.33;;;-4.10;99.90;;;;;;2045564;28;20195;-66
2024/01/09 00:44:10;;;;;;;9.33;6.07;;;-4.10;99.90;;;;;;2045350;28;20183;-67
2024/01/09 00:45:11;;;;;;;9.93;5.80;;;-4.10;99.90;;;;;;2045779;28;20305;-66
2024/01/09 00:46:12;;;;;;;8.87;5.83;;;-4.20;99.90;;;;;;2045912;28;20187;-66
2024/01/09 00:47:12;;;;;;;12.70;7.20;;;-4.20;99.90;;;;;;2045567;28;20183;-67
2024/01/09 00:48:13;;;;;;;14.47;7.60;;;-4.20;99.90;;;;;;2029156;29;20859;-66
2024/01/09 00:49:14;;;;;;;10.67;7.20;;;-4.10;99.90;;;;;;2029722;29;20180;-67
2024/01/09 00:50:14;;;;;;;11.37;6.93;;;-4.10;99.90;;;;;;2037020;28;20180;-66
2024/01/09 00:51:15;;;;;;;11.80;7.47;;;-4.10;99.90;;;;;;2045030;28;20189;-66
2024/01/09 00:52:16;;;;;;;11.23;6.87;;;-4.10;99.90;;;;;;2045243;28;20263;-66
2024/01/09 00:53:16;;;;;;;14.17;8.00;;;-4.10;99.90;;;;;;2036619;29;20740;-67
2024/01/09 00:54:17;;;;;;;8.03;5.70;;;-4.10;99.90;;;;;;2042970;28;20223;-67
2024/01/09 00:55:18;;;;;;;10.77;7.00;;;-4.00;99.90;;;;;;2051739;28;20260;-66
2024/01/09 00:56:19;;;;;;;10.67;6.20;;;-4.00;99.90;;;;;;2052604;28;20260;-67
2024/01/09 00:57:19;;;;;;;11.57;6.65;;;-4.10;99.90;;;;;;2051830;28;20179;-66
2024/01/09 00:58:20;;;;;;;11.30;7.13;;;-4.00;99.90;;;;;;2043903;28;20278;-67
2024/01/09 00:59:21;;;;;;;12.87;8.07;;;-4.00;99.90;;;;;;2043888;28;20274;-67
2024/01/09 01:00:22;;;;;;;9.87;6.27;;;-3.90;99.90;;;;;;2044320;28;20272;-67
2024/01/09 01:01:22;;;;;;;10.53;6.90;;;-4.00;99.90;;;;;;2043475;28;20249;-67
2024/01/09 01:02:23;;;;;;;10.03;6.97;;;-4.00;99.90;;;;;;2035695;29;20376;-66
2024/01/09 01:03:23;;;;;;;9.97;6.67;;;-4.00;99.90;;;;;;2043920;28;20684;-66
2024/01/09 01:04:24;;;;;;;12.07;7.13;;;-4.20;99.90;;;;;;2044189;28;20241;-67
2024/01/09 01:05:25;;;;;;;9.77;6.27;;;-4.20;99.90;;;;;;2043595;28;20238;-67
2024/01/09 01:06:26;;;;;;;9.47;6.63;;;-4.20;99.90;;;;;;2035027;29;20242;-66
2024/01/09 01:07:26;;;;;;;12.27;7.10;;;-4.30;99.90;;;;;;2027830;29;20296;-67
2024/01/09 01:08:27;;;;;;;13.60;7.57;;;-4.30;99.90;;;;;;2038782;28;20465;-67
2024/01/09 01:09:28;;;;;;;10.47;6.20;;;-4.20;99.90;;;;;;2043521;28;20236;-66
2024/01/09 01:10:28;;;;;;;11.03;6.57;;;-4.20;99.90;;;;;;2044183;28;20354;-67
2024/01/09 01:11:29;;;;;;;12.23;7.60;;;-4.10;99.90;;;;;;2043417;28;20234;-67
2024/01/09 01:12:30;;;;;;;9.67;6.37;;;-4.10;99.90;;;;;;2043236;28;21096;-66
2024/01/09 01:13:31;;;;;;;12.30;6.45;;;-4.10;99.90;;;;;;2043480;28;20242;-67
2024/01/09 01:14:32;;;;;;;13.00;7.30;;;-4.20;99.90;;;;;;2038845;28;20639;-66
2024/01/09 01:15:33;;;;;;;10.37;6.57;;;-4.20;99.90;;;;;;2046759;28;20337;-66
2024/01/09 01:16:33;;;;;;;13.60;7.60;;;-4.30;99.90;;;;;;2046318;28;20260;-66
2024/01/09 01:17:34;;;;;;;12.13;6.83;;;-4.30;99.90;;;;;;2046216;28;20441;-67
2024/01/09 01:18:35;;;;;;;12.10;6.83;;;-4.20;99.90;;;;;;2046786;28;20334;-67
2024/01/09 01:19:35;;;;;;;11.10;7.13;;;-4.30;99.90;;;;;;2046108;28;20253;-67
2024/01/09 01:20:36;;;;;;;11.43;7.30;;;-4.30;99.90;;;;;;2046984;28;20364;-67
2024/01/09 01:21:37;;;;;;;10.43;6.90;;;-4.30;99.90;;;;;;2038188;29;20250;-67
2024/01/09 01:22:37;;;;;;;13.40;7.30;;;-4.30;99.90;;;;;;2046500;28;20253;-67
2024/01/09 01:23:38;;;;;;;12.10;6.70;;;-4.30;99.90;;;;;;2046546;28;20233;-65
2024/01/09 01:24:39;;;;;;;11.30;7.47;;;-4.40;99.90;;;;;;2045825;28;20251;-65
2024/01/09 01:25:39;;;;;;;9.97;6.50;;;-4.30;99.90;;;;;;2053662;28;20742;-67
2024/01/09 01:26:40;;;;;;;13.17;7.27;;;-4.40;99.90;;;;;;2046564;28;20259;-66
2024/01/09 01:27:41;;;;;;;11.57;7.30;;;-4.40;99.90;;;;;;2046825;28;20229;-65
2024/01/09 01:28:42;;;;;;;14.90;8.40;;;-4.40;99.90;;;;;;2046346;28;20227;-65
2024/01/09 01:29:43;;;;;;;11.27;7.13;;;-4.50;99.90;;;;;;2046715;28;20230;-66
2024/01/09 01:30:44;;;;;;;13.77;7.43;;;-4.50;99.90;;;;;;2046804;28;20265;-66
2024/01/09 01:31:45;;;;;;;13.43;7.73;;;-4.50;99.90;;;;;;2046622;28;20253;-67
2024/01/09 01:32:46;;;;;;;12.60;6.70;;;-4.50;99.90;;;;;;2045023;28;20233;-66
2024/01/09 01:33:47;;;;;;;11.00;7.27;;;-4.50;99.90;;;;;;2044880;28;20714;-66
2024/01/09 01:34:48;;;;;;;10.40;6.82;;;-4.50;99.90;;;;;;2045303;28;20313;-66
2024/01/09 01:35:48;;;;;;;15.60;8.27;;;-4.60;99.90;;;;;;2046160;28;20231;-66
2024/01/09 01:36:49;;;;;;;11.67;7.23;;;-4.60;99.90;;;;;;2045852;28;20231;-66
2024/01/09 01:37:51;;;;;;;11.40;6.97;;;-4.60;99.90;;;;;;2045553;28;20292;-67
2024/01/09 01:38:52;;;;;;;11.48;6.65;;;-4.60;99.90;;;;;;2044930;28;20221;-67
2024/01/09 01:39:52;;;;;;;16.30;8.10;;;-4.70;99.90;;;;;;2044592;28;20264;-66
2024/01/09 01:40:53;;;;;;;13.50;7.90;;;-4.70;99.90;;;;;;2045764;28;20312;-67
2024/01/09 01:41:54;;;;;;;11.90;6.53;;;-4.70;99.90;;;;;;2045014;28;20233;-66
2024/01/09 01:42:57;;;;;;;12.23;8.10;;;-4.80;99.90;;;;;;2045397;28;20269;-66
2024/01/09 01:43:58;;;;;;;13.82;7.55;;;-4.70;99.90;;;;;;2045689;28;20296;-66
2024/01/09 01:44:59;;;;;;;11.17;7.20;;;-4.90;99.90;;;;;;2046730;28;20240;-66
2024/01/09 01:45:59;;;;;;;17.57;7.90;;;-4.90;99.90;;;;;;2045364;28;20230;-66
2024/01/09 01:47:00;;;;;;;11.80;7.47;;;-4.90;99.90;;;;;;2046048;28;20867;-67
2024/01/09 01:48:02;;;;;;;11.38;7.30;;;-5.00;99.90;;;;;;2042602;28;21872;-66
2024/01/09 01:49:03;;;;;;;10.48;6.30;;;-5.00;99.90;;;;;;2043859;28;20199;-66
2024/01/09 01:50:06;;;;;;;12.97;7.73;;;-5.00;99.90;;;;;;2044562;28;20213;-66
2024/01/09 01:51:06;;;;;;;11.68;7.63;;;-5.00;99.90;;;;;;2043446;28;20203;-66
2024/01/09 01:52:08;;;;;;;12.63;7.50;;;-5.00;99.90;;;;;;2043828;28;20186;-66
2024/01/09 01:53:09;;;;;;;10.38;7.13;;;-5.00;99.90;;;;;;2035768;29;20187;-66
2024/01/09 01:54:12;;;;;;;12.13;7.30;;;-4.90;99.90;;;;;;2035539;28;20687;-66
2024/01/09 01:55:17;;;;;;;15.02;8.23;;;-4.90;99.90;;;;;;2035890;28;20688;-66
2024/01/09 01:56:18;;;;;;;13.95;7.60;;;-4.90;99.90;;;;;;2037062;28;20214;-65
2024/01/09 01:57:19;;;;;;;11.20;7.33;;;-4.90;99.90;;;;;;2035298;28;20789;-66
2024/01/09 01:58:20;;;;;;;11.63;7.03;;;-4.90;99.90;;;;;;2043830;28;20284;-66
2024/01/09 01:59:22;;;;;;;12.18;6.25;;;-5.00;99.90;;;;;;2043888;28;20246;-66
2024/01/09 02:00:25;;;;;;;12.70;7.90;;;-4.90;99.90;;;;;;2039028;29;20391;-65
2024/01/09 02:01:26;;;;;;;15.38;8.40;;;-5.00;99.90;;;;;;2038442;29;20244;-66
2024/01/09 02:02:28;;;;;;;12.35;7.45;;;-5.00;99.90;;;;;;2034582;28;20625;-66
2024/01/09 02:03:28;;;;;;;12.93;7.57;;;-5.00;99.90;;;;;;2034795;28;20232;-65
2024/01/09 02:04:30;;;;;;;12.33;8.13;;;-5.00;99.90;;;;;;2046067;28;20305;-66
2024/01/09 02:05:31;;;;;;;14.55;8.85;;;-5.10;99.90;;;;;;2042160;28;20311;-67
2024/01/09 02:06:33;;;;;;;14.30;7.80;;;-5.10;99.90;;;;;;2042861;28;20227;-66
2024/01/09 02:07:35;;;;;;;12.65;7.40;;;-5.00;99.90;;;;;;2043192;28;20335;-66
2024/01/09 02:08:37;;;;;;;14.10;7.00;;;-5.00;99.90;;;;;;2030255;29;20230;-66
2024/01/09 02:09:38;;;;;;;12.75;7.68;;;-5.00;99.90;;;;;;2038642;29;20805;-66
2024/01/09 02:10:38;;;;;;;12.07;7.30;;;-4.90;99.90;;;;;;2045602;28;20227;-66
2024/01/09 02:11:39;;;;;;;11.60;7.30;;;-5.00;99.90;;;;;;2046418;28;20242;-65
2024/01/09 02:12:41;;;;;;;10.73;7.10;;;-5.10;99.90;;;;;;2044949;28;20229;-65
2024/01/09 02:13:42;;;;;;;11.85;7.32;;;-5.10;99.90;;;;;;2037307;29;20229;-67
2024/01/09 02:14:42;;;;;;;14.07;8.10;;;-5.20;99.90;;;;;;2046319;28;20239;-66
2024/01/09 02:15:43;;;;;;;12.80;7.83;;;-5.20;99.90;;;;;;2045184;28;20740;-66
2024/01/09 02:16:44;;;;;;;12.53;7.97;;;-5.20;99.90;;;;;;2045782;28;20772;-66
2024/01/09 02:17:45;;;;;;;13.57;8.20;;;-5.10;99.90;;;;;;2045442;28;20266;-66
2024/01/09 02:18:46;;;;;;;12.17;7.50;;;-5.20;99.90;;;;;;2036846;29;20574;-66
2024/01/09 02:19:46;;;;;;;14.50;8.40;;;-5.20;99.90;;;;;;2037054;29;20474;-66
2024/01/09 02:20:47;;;;;;;12.83;7.17;;;-5.20;99.90;;;;;;2045066;28;20242;-66
2024/01/09 02:21:50;;;;;;;14.33;7.83;;;-5.20;99.90;;;;;;2045791;28;20227;-66
2024/01/09 02:22:51;;;;;;;15.10;7.03;;;-5.20;99.90;;;;;;2045252;28;20691;-66
2024/01/09 02:23:52;;;;;;;13.10;7.93;;;-5.20;99.90;;;;;;2045551;28;20227;-66
2024/01/09 02:24:52;;;;;;;12.67;7.80;;;-5.20;99.90;;;;;;2044806;28;20228;-66
2024/01/09 02:25:53;;;;;;;12.20;8.23;;;-5.20;99.90;;;;;;2044371;28;20300;-66
2024/01/09 02:27:11;;;;;;;12.43;8.00;;;-5.20;99.90;;;;;;2036941;28;20236;-66
2024/01/09 02:28:21;;;;;;;12.32;7.53;;;-5.10;99.90;;;;;;2039821;28;20661;-66
2024/01/09 02:29:23;;;;;;;13.38;8.63;;;-5.10;99.90;;;;;;2042289;28;20715;-66
2024/01/09 02:30:24;;;;;;;12.50;7.88;;;-5.00;99.90;;;;;;2044106;28;20708;-66
2024/01/09 02:31:26;;;;;;;11.60;7.40;;;-5.00;99.90;;;;;;2044235;28;20438;-66
2024/01/09 02:32:26;;;;;;;11.25;7.90;;;-5.00;99.90;;;;;;2036052;29;20225;-66
2024/01/09 02:33:28;;;;;;;12.93;8.13;;;-5.00;99.90;;;;;;2043817;28;20223;-66
2024/01/09 02:34:30;;;;;;;10.73;7.43;;;-5.00;99.90;;;;;;2043740;28;20299;-66
2024/01/09 02:35:32;;;;;;;12.95;7.30;;;-5.00;99.90;;;;;;2030148;29;20750;-66
2024/01/09 02:36:32;;;;;;;12.68;7.22;;;-5.00;99.90;;;;;;2022354;29;20226;-66
2024/01/09 02:37:33;;;;;;;12.70;7.60;;;-5.00;99.90;;;;;;2029676;29;20322;-66
2024/01/09 02:38:34;;;;;;;12.30;7.40;;;-5.10;99.90;;;;;;2045819;28;20406;-66
2024/01/09 02:39:35;;;;;;;13.90;8.03;;;-5.10;99.90;;;;;;2044018;28;20696;-66
2024/01/09 02:40:35;;;;;;;14.57;8.67;;;-5.00;99.90;;;;;;2043864;28;20847;-66
2024/01/09 02:41:38;;;;;;;11.30;7.07;;;-5.00;99.90;;;;;;2043065;28;20242;-66
2024/01/09 02:42:38;;;;;;;15.10;7.63;;;-4.90;99.90;;;;;;2042870;28;20688;-66
2024/01/09 02:43:39;;;;;;;14.00;8.77;;;-4.90;99.90;;;;;;2043669;28;20244;-65
2024/01/09 02:44:40;;;;;;;13.93;8.10;;;-5.00;99.90;;;;;;2043645;28;20680;-66
2024/01/09 02:45:40;;;;;;;13.90;7.70;;;-5.00;99.90;;;;;;2042762;28;20612;-67
2024/01/09 02:46:41;;;;;;;12.27;7.70;;;-5.00;99.90;;;;;;2042996;28;20240;-66
2024/01/09 02:47:42;;;;;;;12.37;7.27;;;-4.90;99.90;;;;;;2042809;28;20234;-66
2024/01/09 02:48:43;;;;;;;14.90;7.63;;;-5.00;99.90;;;;;;2042507;28;20234;-66
2024/01/09 02:49:44;;;;;;;15.80;6.70;;;-5.00;99.90;;;;;;2043266;28;20798;-66
2024/01/09 02:50:44;;;;;;;12.97;8.07;;;-5.00;99.90;;;;;;2042322;28;20351;-66
2024/01/09 02:51:45;;;;;;;15.10;7.83;;;-5.00;99.90;;;;;;2042434;28;20294;-66
2024/01/09 02:52:46;;;;;;;13.70;7.83;;;-5.00;99.90;;;;;;2042840;28;20290;-65
2024/01/09 02:53:47;;;;;;;13.77;8.25;;;-5.00;99.90;;;;;;2041419;28;20773;-66
2024/01/09 02:54:48;;;;;;;10.27;7.05;;;-5.10;99.90;;;;;;2041778;28;20224;-66
2024/01/09 02:55:49;;;;;;;11.30;6.87;;;-5.10;99.90;;;;;;2042512;28;20287;-66
2024/01/09 02:56:50;;;;;;;12.30;7.83;;;-5.10;99.90;;;;;;2038070;28;20263;-66
2024/01/09 02:57:50;;;;;;;14.90;7.93;;;-5.00;99.90;;;;;;2042824;28;20228;-66
2024/01/09 02:58:51;;;;;;;10.43;7.17;;;-5.00;99.90;;;;;;2042949;28;20235;-66
2024/01/09 02:59:52;;;;;;;13.37;7.67;;;-5.10;99.90;;;;;;2042780;28;20236;-66
2024/01/09 03:00:52;;;;;;;14.83;7.70;;;-5.10;99.90;;;;;;2042666;28;20265;-66
2024/01/09 03:01:53;;;;;;;12.10;7.43;;;-5.10;99.90;;;;;;2046062;28;20293;-66
2024/01/09 03:02:54;;;;;;;12.47;8.30;;;-5.10;99.90;;;;;;2045076;28;20269;-66
2024/01/09 03:03:54;;;;;;;13.10;7.87;;;-5.10;99.90;;;;;;2045869;28;20239;-66
2024/01/09 03:04:55;;;;;;;11.20;7.50;;;-5.10;99.90;;;;;;2053570;28;20232;-66
2024/01/09 03:05:56;;;;;;;15.43;8.57;;;-5.20;99.90;;;;;;2046196;28;20238;-66
2024/01/09 03:06:57;;;;;;;11.90;7.20;;;-5.20;99.90;;;;;;2045945;28;20217;-66
2024/01/09 03:07:57;;;;;;;12.98;7.93;;;-5.20;99.90;;;;;;2045249;28;20232;-66
2024/01/09 03:08:58;;;;;;;11.13;7.30;;;-5.20;99.90;;;;;;2044903;28;20723;-66
2024/01/09 03:09:59;;;;;;;14.10;7.37;;;-5.20;99.90;;;;;;2041869;28;20349;-66
2024/01/09 03:11:00;;;;;;;13.95;7.88;;;-5.20;99.90;;;;;;2044449;28;20263;-66
2024/01/09 03:12:00;;;;;;;11.63;7.17;;;-5.20;99.90;;;;;;2044284;28;20254;-66
2024/01/09 03:13:01;;;;;;;14.27;8.60;;;-5.20;99.90;;;;;;2042659;28;20295;-66
2024/01/09 03:14:02;;;;;;;13.53;7.60;;;-5.20;99.90;;;;;;2045484;28;20193;-66
2024/01/09 03:15:03;;;;;;;12.03;7.40;;;-5.20;99.90;;;;;;2045453;28;20196;-66
2024/01/09 03:16:11;;;;;;;15.95;9.38;;;-5.20;99.90;;;;;;2044952;28;20213;-65
2024/01/09 03:17:11;;;;;;;13.57;7.82;;;-5.20;99.90;;;;;;2045323;28;20687;-66
2024/01/09 03:18:14;;;;;;;14.50;7.93;;;-5.30;99.90;;;;;;2045617;28;20184;-65
2024/01/09 03:19:15;;;;;;;12.45;7.68;;;-5.30;99.90;;;;;;2044479;28;20190;-66
2024/01/09 03:20:16;;;;;;;15.15;8.57;;;-5.20;99.90;;;;;;2045363;28;20319;-65
2024/01/09 03:21:17;;;;;;;13.20;7.63;;;-5.30;99.90;;;;;;2045259;28;20693;-66
2024/01/09 03:22:18;;;;;;;14.53;7.83;;;-5.20;99.90;;;;;;2041560;28;20231;-66
2024/01/09 03:23:18;;;;;;;13.47;8.50;;;-5.30;99.90;;;;;;2042483;28;20343;-65
2024/01/09 03:24:19;;;;;;;13.83;7.83;;;-5.40;99.90;;;;;;2044646;28;20224;-66
2024/01/09 03:25:20;;;;;;;15.87;8.10;;;-5.40;99.90;;;;;;2043796;28;20199;-66
2024/01/09 03:26:21;;;;;;;13.17;7.73;;;-5.40;99.90;;;;;;2044551;28;20224;-66
2024/01/09 03:27:22;;;;;;;12.88;7.25;;;-5.40;99.90;;;;;;2044076;28;20259;-66
2024/01/09 03:28:23;;;;;;;13.00;7.57;;;-5.40;99.90;;;;;;2044489;28;20236;-67
2024/01/09 03:29:24;;;;;;;12.25;7.97;;;-5.30;99.90;;;;;;2044659;28;20621;-65
2024/01/09 03:30:25;;;;;;;16.70;9.50;;;-5.40;99.90;;;;;;2053209;28;20300;-66
2024/01/09 03:31:26;;;;;;;11.93;7.60;;;-5.30;99.90;;;;;;2044790;28;20236;-66
2024/01/09 03:32:27;;;;;;;14.93;8.03;;;-5.30;99.90;;;;;;2036664;28;20228;-66
2024/01/09 03:33:28;;;;;;;16.60;8.43;;;-5.30;99.90;;;;;;2044152;28;20228;-66
2024/01/09 03:34:28;;;;;;;14.40;8.50;;;-5.30;99.90;;;;;;2045536;28;20235;-66
2024/01/09 03:35:29;;;;;;;13.67;7.70;;;-5.30;99.90;;;;;;2047077;28;20234;-66
2024/01/09 03:36:31;;;;;;;14.80;7.53;;;-5.30;99.90;;;;;;2039763;28;20235;-65
2024/01/09 03:37:32;;;;;;;14.05;7.45;;;-5.40;99.90;;;;;;2036712;28;20221;-65
2024/01/09 03:38:32;;;;;;;13.97;7.87;;;-5.40;99.90;;;;;;2044268;28;20224;-66
2024/01/09 03:39:33;;;;;;;17.27;8.63;;;-5.40;99.90;;;;;;2043092;28;20216;-66
2024/01/09 03:40:35;;;;;;;12.23;7.83;;;-5.40;99.90;;;;;;2047606;28;20232;-66
2024/01/09 03:41:36;;;;;;;13.75;8.05;;;-5.50;99.90;;;;;;2044061;28;20273;-66
2024/01/09 03:42:37;;;;;;;15.87;8.43;;;-5.50;99.90;;;;;;2044411;28;20696;-66
2024/01/09 03:43:38;;;;;;;14.93;8.40;;;-5.50;99.90;;;;;;2044015;28;20235;-66
2024/01/09 03:44:38;;;;;;;16.00;8.30;;;-5.40;99.90;;;;;;2043890;28;20229;-66
2024/01/09 03:45:39;;;;;;;14.23;8.30;;;-5.40;99.90;;;;;;2044432;28;20730;-66
2024/01/09 03:46:40;;;;;;;13.73;8.38;;;-5.40;99.90;;;;;;2035779;28;20236;-65
2024/01/09 03:47:41;;;;;;;14.23;7.67;;;-5.50;99.90;;;;;;2028943;29;20233;-66
2024/01/09 03:48:41;;;;;;;15.37;8.50;;;-5.50;99.90;;;;;;2045685;28;20310;-66
2024/01/09 03:49:42;;;;;;;13.67;8.43;;;-5.50;99.90;;;;;;2043221;28;20242;-65
2024/01/09 03:50:43;;;;;;;14.27;9.33;;;-5.60;99.90;;;;;;2035615;28;20233;-66
2024/01/09 03:51:44;;;;;;;13.43;8.90;;;-5.60;99.90;;;;;;2044204;28;20868;-66
2024/01/09 03:52:44;;;;;;;13.57;7.80;;;-5.60;99.90;;;;;;2043572;28;20325;-66
2024/01/09 03:53:45;;;;;;;14.20;7.80;;;-5.60;99.90;;;;;;2043712;28;20771;-66
2024/01/09 03:54:46;;;;;;;13.00;7.90;;;-5.60;99.90;;;;;;2043458;28;20690;-66
2024/01/09 03:55:47;;;;;;;16.50;8.13;;;-5.60;99.90;;;;;;2045079;28;21022;-66
2024/01/09 03:56:47;;;;;;;19.20;9.63;;;-5.60;99.90;;;;;;2048509;28;20240;-66
2024/01/09 03:57:48;;;;;;;13.43;8.03;;;-5.70;99.90;;;;;;2046958;28;20286;-65
2024/01/09 03:58:49;;;;;;;12.50;7.30;;;-5.70;99.90;;;;;;2047465;28;20239;-66
2024/01/09 03:59:49;;;;;;;12.50;7.13;;;-5.70;99.90;;;;;;2048018;28;20245;-66
2024/01/09 04:00:50;;;;;;;14.57;9.20;;;-5.60;99.90;;;;;;2046613;28;20236;-66
2024/01/09 04:01:51;;;;;;;15.23;8.47;;;-5.60;99.90;;;;;;2046762;28;20270;-66
2024/01/09 04:02:51;;;;;;;12.40;7.47;;;-5.60;99.90;;;;;;2046526;28;20594;-66
2024/01/09 04:03:52;;;;;;;18.80;8.20;;;-5.50;99.90;;;;;;2046676;28;20329;-65
2024/01/09 04:04:53;;;;;;;14.47;8.93;;;-5.50;99.90;;;;;;2047033;28;20230;-65
2024/01/09 04:05:53;;;;;;;13.53;8.43;;;-5.50;99.90;;;;;;2046416;28;20242;-66
2024/01/09 04:06:54;;;;;;;15.37;8.20;;;-5.50;99.90;;;;;;2046031;28;20260;-66
2024/01/09 04:07:55;;;;;;;13.70;6.87;;;-5.40;99.90;;;;;;2046437;28;20251;-66
2024/01/09 04:08:55;;;;;;;15.33;8.17;;;-5.50;99.90;;;;;;2046043;28;20235;-66
2024/01/09 04:09:56;;;;;;;16.30;8.37;;;-5.50;99.90;;;;;;2046165;28;20318;-66
2024/01/09 04:10:57;;;;;;;13.73;8.67;;;-5.40;99.90;;;;;;2045770;28;20382;-66
2024/01/09 04:11:57;;;;;;;12.80;8.43;;;-5.40;99.90;;;;;;2045751;28;20267;-66
2024/01/09 04:12:58;;;;;;;12.87;7.93;;;-5.40;99.90;;;;;;2046033;28;20744;-66
2024/01/09 04:13:59;;;;;;;13.63;7.27;;;-5.40;99.90;;;;;;2037251;28;20362;-66
2024/01/09 04:14:59;;;;;;;16.20;8.50;;;-5.30;99.90;;;;;;2037360;28;20319;-65
2024/01/09 04:16:00;;;;;;;14.43;7.70;;;-5.30;99.90;;;;;;2042956;28;20318;-66
2024/01/09 04:17:01;;;;;;;13.17;8.47;;;-5.30;99.90;;;;;;2052316;28;20283;-66
2024/01/09 04:18:02;;;;;;;13.67;7.57;;;-5.20;99.90;;;;;;2045926;28;20193;-66
2024/01/09 04:19:03;;;;;;;14.98;8.15;;;-5.30;99.90;;;;;;2037112;28;20184;-66
2024/01/09 04:20:05;;;;;;;16.45;8.73;;;-5.30;99.90;;;;;;2045527;28;20182;-66
2024/01/09 04:21:05;;;;;;;15.30;8.20;;;-5.30;99.90;;;;;;2048599;28;20227;-66
2024/01/09 04:22:07;;;;;;;16.03;9.17;;;-5.30;99.90;;;;;;2047031;28;20660;-66
2024/01/09 04:23:07;;;;;;;15.13;8.10;;;-5.30;99.90;;;;;;2045446;28;20204;-66
2024/01/09 04:24:08;;;;;;;14.47;8.93;;;-5.30;99.90;;;;;;2038844;28;20185;-66
2024/01/09 04:25:09;;;;;;;15.87;8.90;;;-5.30;99.90;;;;;;2028749;29;20195;-65
2024/01/09 04:26:09;;;;;;;15.97;9.10;;;-5.30;99.90;;;;;;2038464;29;20212;-66
2024/01/09 04:27:10;;;;;;;14.20;7.87;;;-5.20;99.90;;;;;;2044490;28;20420;-66
2024/01/09 04:28:11;;;;;;;15.40;8.70;;;-5.20;99.90;;;;;;2044905;28;20185;-66
2024/01/09 04:29:12;;;;;;;14.23;8.00;;;-5.10;99.90;;;;;;2044935;28;20232;-66
2024/01/09 04:30:12;;;;;;;13.33;7.83;;;-5.10;99.90;;;;;;2045053;28;20187;-66
2024/01/09 04:31:13;;;;;;;15.47;9.03;;;-5.20;99.90;;;;;;2044041;28;20196;-65
2024/01/09 04:32:14;;;;;;;14.40;8.40;;;-5.20;99.90;;;;;;2043690;28;20440;-66
2024/01/09 04:33:14;;;;;;;12.90;7.73;;;-5.20;99.90;;;;;;2044413;28;20181;-66
2024/01/09 04:34:15;;;;;;;14.03;7.83;;;-5.20;99.90;;;;;;2043892;28;20279;-65
2024/01/09 04:35:16;;;;;;;13.80;7.47;;;-5.20;99.90;;;;;;2036226;29;20241;-65
2024/01/09 04:36:17;;;;;;;13.50;8.90;;;-5.20;99.90;;;;;;2036140;29;20729;-66
2024/01/09 04:37:18;;;;;;;11.27;7.05;;;-5.20;99.90;;;;;;2038443;29;20589;-65
2024/01/09 04:38:19;;;;;;;11.47;7.27;;;-5.30;99.90;;;;;;2039189;29;20253;-65
2024/01/09 04:39:19;;;;;;;15.63;8.60;;;-5.30;99.90;;;;;;2044258;28;20210;-66
2024/01/09 04:40:20;;;;;;;15.57;7.47;;;-5.30;99.90;;;;;;2044052;28;20207;-65
2024/01/09 04:41:21;;;;;;;15.27;9.00;;;-5.40;99.90;;;;;;2042630;28;20259;-65
2024/01/09 04:42:21;;;;;;;13.90;7.83;;;-5.40;99.90;;;;;;2043027;28;20239;-64
2024/01/09 04:43:22;;;;;;;15.13;8.13;;;-5.50;99.90;;;;;;2046552;28;20229;-65
2024/01/09 04:44:23;;;;;;;14.83;9.00;;;-5.50;99.90;;;;;;2043668;28;20331;-66
2024/01/09 04:45:23;;;;;;;14.60;8.73;;;-5.40;99.90;;;;;;2042949;28;20272;-65
2024/01/09 04:46:24;;;;;;;15.23;7.90;;;-5.40;99.90;;;;;;2043225;28;20241;-65
2024/01/09 04:47:25;;;;;;;12.70;7.90;;;-5.40;99.90;;;;;;2043611;28;20245;-66
2024/01/09 04:48:26;;;;;;;11.63;6.95;;;-5.40;99.90;;;;;;2043051;28;20676;-66
2024/01/09 04:49:27;;;;;;;11.80;7.03;;;-5.30;99.90;;;;;;2043435;28;20231;-66
2024/01/09 04:50:27;;;;;;;14.20;8.07;;;-5.20;99.90;;;;;;2051062;28;20702;-66
2024/01/09 04:51:28;;;;;;;15.00;8.37;;;-5.20;99.90;;;;;;2046147;28;20233;-66
2024/01/09 04:52:29;;;;;;;16.50;10.17;;;-5.40;99.90;;;;;;2046036;28;20765;-66
2024/01/09 04:53:30;;;;;;;15.13;8.57;;;-5.30;99.90;;;;;;2045720;28;20230;-66
2024/01/09 04:54:30;;;;;;;16.33;8.67;;;-5.30;99.90;;;;;;2046982;28;20259;-66
2024/01/09 04:55:31;;;;;;;14.03;8.77;;;-5.30;99.90;;;;;;2047793;28;20260;-66
2024/01/09 04:56:32;;;;;;;11.97;7.93;;;-5.30;99.90;;;;;;2054085;28;20321;-66
2024/01/09 04:57:32;;;;;;;14.30;7.67;;;-5.40;99.90;;;;;;2054969;28;20731;-66
2024/01/09 04:58:33;;;;;;;14.00;7.93;;;-5.40;99.90;;;;;;2046617;28;20771;-65
2024/01/09 04:59:34;;;;;;;12.70;7.87;;;-5.40;99.90;;;;;;2046459;28;20318;-66
2024/01/09 05:00:34;;;;;;;13.23;7.80;;;-5.50;99.90;;;;;;2046306;28;20725;-66
2024/01/09 05:01:35;;;;;;;13.67;8.30;;;-5.50;99.90;;;;;;2045686;28;20240;-66
2024/01/09 05:02:36;;;;;;;11.93;7.53;;;-5.50;99.90;;;;;;2034627;28;20249;-66
2024/01/09 05:03:37;;;;;;;19.63;11.83;;;-5.50;99.90;;;;;;2030570;29;20296;-66
2024/01/09 05:04:38;;;;;;;12.55;7.57;;;-5.60;99.90;;;;;;2045603;28;20604;-65
2024/01/09 05:05:39;;;;;;;12.90;7.65;;;-5.60;99.90;;;;;;2045795;28;20694;-66
2024/01/09 05:06:40;;;;;;;15.47;8.63;;;-5.60;99.90;;;;;;2046563;28;20318;-66
2024/01/09 05:07:40;;;;;;;13.87;8.23;;;-5.60;99.90;;;;;;2036359;28;20242;-66
2024/01/09 05:08:41;;;;;;;13.70;8.47;;;-5.60;99.90;;;;;;2042606;28;20234;-66
2024/01/09 05:09:42;;;;;;;12.47;7.80;;;-5.60;99.90;;;;;;2046415;28;20229;-66
2024/01/09 05:10:42;;;;;;;16.40;8.50;;;-5.60;99.90;;;;;;2040362;28;20252;-66
2024/01/09 05:11:43;;;;;;;14.37;8.27;;;-5.50;99.90;;;;;;2046402;28;20228;-66
2024/01/09 05:12:44;;;;;;;14.63;8.53;;;-5.60;99.90;;;;;;2045509;28;20228;-66
2024/01/09 05:13:44;;;;;;;12.33;6.67;;;-5.60;99.90;;;;;;2045684;28;20312;-66